Time;durP1;ratioP1;P1;durP2;ratioP2;P2;SDS_P1;SDS_P2;PMS_P1;PMS_P2;Temp;Humidity;BMP_temperature;BMP_pressure;BME280_temperature;BME280_humidity;BME280_pressure;Samples;Min_cycle;Max_cycle;Signal;HPM_P1;HPM_P2
2022/01/25 00:26:32;;;;;;;104.20;46.85;;;;;;;-8.23;66.44;102225.01;1457788;88;21568;-83
2022/01/25 00:29:12;;;;;;;111.30;47.67;;;;;;;-8.22;66.10;102227.15;1463172;88;21418;-83
2022/01/25 00:31:41;;;;;;;101.70;43.00;;;;;;;-8.24;66.06;102220.70;1443756;88;21678;-83
2022/01/25 00:34:09;;;;;;;107.40;48.28;;;;;;;-8.23;65.87;102217.70;1457733;88;21463;-83
2022/01/25 00:36:36;;;;;;;97.17;40.67;;;;;;;-8.25;65.84;102217.70;1466105;88;21427;-83
2022/01/25 00:39:05;;;;;;;103.83;46.70;;;;;;;-8.26;66.36;102216.39;1469947;88;21566;-83
2022/01/25 00:41:33;;;;;;;99.47;43.63;;;;;;;-8.30;66.36;102212.08;1465164;88;21492;-83
2022/01/25 00:44:01;;;;;;;93.87;39.58;;;;;;;-8.32;66.11;102205.63;1463441;88;21477;-83
2022/01/25 00:46:29;;;;;;;92.25;37.80;;;;;;;-8.29;66.18;102203.08;1465765;87;21536;-83
2022/01/25 00:49:01;;;;;;;90.15;37.42;;;;;;;-8.33;66.22;102201.34;1456779;87;22685;-83
2022/01/25 00:54:28;;;;;;;78.85;35.70;;;;;;;-8.38;66.23;102203.00;1449115;89;21459;-82
2022/01/25 00:56:48;;;;;;;89.62;37.60;;;;;;;-8.39;66.14;102197.47;1436951;87;22476;-82
2022/01/25 00:59:20;;;;;;;91.65;38.63;;;;;;;-8.32;65.88;102198.34;1457829;86;21777;-83
2022/01/25 01:01:50;;;;;;;77.15;35.35;;;;;;;-8.29;65.93;102196.66;1446415;87;21422;-83
2022/01/25 01:04:19;;;;;;;62.62;28.92;;;;;;;-8.35;65.62;102199.17;1458142;87;23333;-84
2022/01/25 01:06:48;;;;;;;73.47;33.40;;;;;;;-8.37;65.68;102197.44;1455540;87;21966;-82
2022/01/25 01:09:18;;;;;;;73.12;33.00;;;;;;;-8.43;65.54;102200.44;1450656;87;21445;-87
2022/01/25 01:11:54;;;;;;;79.03;33.92;;;;;;;-8.51;65.50;102199.91;1460904;87;22397;-86
2022/01/25 01:17:07;;;;;;;79.95;35.45;;;;;;;-8.53;65.39;102192.18;1470777;87;21436;-86
2022/01/25 01:30:57;;;;;;;77.72;33.15;;;;;;;-8.59;65.17;102177.14;1481667;87;21503;-86
2022/01/25 01:36:34;;;;;;;70.97;33.30;;;;;;;-8.66;65.13;102171.05;1477120;87;21406;-86
2022/01/25 01:39:08;;;;;;;67.82;32.05;;;;;;;-8.71;65.08;102162.05;1453911;87;21401;-87
2022/01/25 01:43:54;;;;;;;68.07;30.45;;;;;;;-8.71;65.07;102154.34;1477690;87;21459;-86
2022/01/25 01:51:28;;;;;;;62.40;26.97;;;;;;;-8.72;65.00;102146.19;1478593;87;23348;-86
2022/01/25 01:53:50;;;;;;;59.58;28.17;;;;;;;-8.72;64.82;102143.61;1483406;87;21472;-88
2022/01/25 01:56:19;;;;;;;58.70;26.30;;;;;;;-8.71;64.88;102151.77;1456061;88;22463;-81
2022/01/25 01:58:46;;;;;;;60.05;29.42;;;;;;;-8.68;65.17;102154.80;1478114;86;21427;-81
2022/01/25 02:01:17;;;;;;;56.90;26.23;;;;;;;-8.67;64.95;102150.95;1480616;87;21568;-80
2022/01/25 02:03:45;;;;;;;46.35;21.80;;;;;;;-8.61;64.80;102148.02;1475489;87;22242;-80
2022/01/25 02:06:12;;;;;;;60.08;29.63;;;;;;;-8.61;64.80;102148.02;1481524;87;21509;-81
2022/01/25 02:08:39;;;;;;;56.90;26.77;;;;;;;-8.59;64.68;102145.05;1429596;87;21457;-81
2022/01/25 02:11:07;;;;;;;57.00;26.27;;;;;;;-8.58;64.89;102144.20;1459659;88;22545;-81
2022/01/25 02:13:46;;;;;;;57.75;27.17;;;;;;;-8.58;64.77;102140.34;1477814;87;21348;-81
2022/01/25 02:16:39;;;;;;;53.38;26.27;;;;;;;-8.60;64.45;102140.34;1473116;87;22403;-81
2022/01/25 02:24:18;;;;;;;47.83;23.30;;;;;;;-8.66;64.34;102127.42;1468750;87;23743;-79
2022/01/25 02:26:46;;;;;;;54.80;25.00;;;;;;;-8.71;64.33;102120.97;1478141;86;21458;-81
2022/01/25 02:29:13;;;;;;;49.98;23.85;;;;;;;-8.72;64.38;102126.94;1475443;87;21504;-81
2022/01/25 02:31:41;;;;;;;49.25;24.37;;;;;;;-8.73;64.46;102122.66;1480215;86;21458;-81
2022/01/25 02:34:08;;;;;;;56.50;25.20;;;;;;;-8.72;64.48;102126.94;1475156;87;21356;-81
2022/01/25 02:36:35;;;;;;;62.73;27.87;;;;;;;-8.67;64.61;102129.56;1476768;87;21385;-81
2022/01/25 02:39:03;;;;;;;54.65;25.75;;;;;;;-8.66;64.51;102119.32;1476219;87;21628;-81
2022/01/25 02:41:31;;;;;;;49.90;24.27;;;;;;;-8.68;64.33;102118.44;1476856;87;21443;-81
2022/01/25 02:43:58;;;;;;;53.00;24.12;;;;;;;-8.74;64.49;102115.81;1469122;87;21517;-81
2022/01/25 02:49:05;;;;;;;52.78;25.10;;;;;;;-8.76;64.41;102107.66;1476822;87;22603;-81
2022/01/25 02:51:37;;;;;;;48.05;22.45;;;;;;;-8.80;64.58;102111.91;1473748;87;22366;-80
2022/01/25 02:54:07;;;;;;;55.35;23.52;;;;;;;-8.82;64.66;102108.88;1478834;87;21712;-81
2022/01/25 02:56:36;;;;;;;51.35;22.37;;;;;;;-8.80;64.68;102110.62;1481479;87;21562;-81
2022/01/25 02:59:06;;;;;;;49.60;23.22;;;;;;;-8.80;64.65;102109.73;1476052;87;22323;-81
2022/01/25 03:01:35;;;;;;;53.90;22.98;;;;;;;-8.81;64.81;102104.17;1479032;87;21525;-81
2022/01/25 03:04:04;;;;;;;48.95;21.42;;;;;;;-8.82;64.99;102106.31;1468058;87;21391;-81
2022/01/25 03:06:32;;;;;;;52.78;23.80;;;;;;;-8.78;64.92;102106.77;1473365;87;21508;-81
2022/01/25 03:09:00;;;;;;;51.40;22.37;;;;;;;-8.74;64.96;102113.25;1468561;87;22498;-81
2022/01/25 03:11:27;;;;;;;51.73;23.67;;;;;;;-8.71;64.92;102114.55;1472665;87;21442;-83
2022/01/25 03:13:59;;;;;;;55.90;24.07;;;;;;;-8.66;64.92;102118.04;1445211;88;21496;-82
2022/01/25 03:16:40;;;;;;;37.45;18.42;;;;;;;-8.62;65.05;102115.07;1448146;87;21481;-82
2022/01/25 03:19:28;;;;;;;50.10;23.30;;;;;;;-8.62;66.04;102121.92;1455525;86;22595;-82
2022/01/25 03:21:37;;;;;;;49.75;22.67;;;;;;;-8.66;66.32;102127.02;1456406;87;21519;-82
2022/01/25 03:24:06;;;;;;;54.42;23.35;;;;;;;-8.68;66.58;102115.88;1452058;87;21474;-82
2022/01/25 03:26:35;;;;;;;61.73;24.35;;;;;;;-8.64;66.51;102117.61;1453084;86;22618;-83
2022/01/25 03:29:03;;;;;;;45.85;24.23;;;;;;;-8.59;66.43;102111.25;1455983;87;22382;-83
2022/01/25 03:31:31;;;;;;;47.33;22.30;;;;;;;-8.52;66.37;102105.31;1430790;88;21605;-83
2022/01/25 03:33:59;;;;;;;44.20;20.40;;;;;;;-8.44;66.17;102101.54;1459992;86;21430;-83
2022/01/25 03:36:28;;;;;;;53.10;24.45;;;;;;;-8.37;65.84;102100.73;1460726;86;21397;-83
2022/01/25 03:38:55;;;;;;;53.58;23.47;;;;;;;-8.28;65.75;102101.23;1450600;86;21600;-82
2022/01/25 03:41:23;;;;;;;46.85;22.70;;;;;;;-8.21;65.86;102107.69;1452858;87;21489;-82
2022/01/25 03:43:54;;;;;;;45.65;22.05;;;;;;;-8.14;65.88;102110.30;1430033;89;21548;-82
2022/01/25 03:51:40;;;;;;;42.58;19.82;;;;;;;-7.96;66.04;102101.47;1451101;87;21452;-82
2022/01/25 03:54:09;;;;;;;41.73;19.65;;;;;;;-7.83;65.93;102100.67;1427100;89;25051;-82
2022/01/25 03:56:37;;;;;;;41.98;21.33;;;;;;;-7.73;65.81;102090.05;1451216;87;21459;-82
2022/01/25 03:59:06;;;;;;;40.20;20.88;;;;;;;-7.64;65.55;102091.81;1456141;87;21438;-82
2022/01/25 04:01:35;;;;;;;51.28;21.40;;;;;;;-7.59;64.82;102093.98;1463275;87;21399;-82
2022/01/25 04:04:08;;;;;;;42.85;21.17;;;;;;;-7.59;64.64;102092.70;1464517;87;21430;-83
2022/01/25 04:06:35;;;;;;;43.48;21.77;;;;;;;-7.61;64.48;102098.25;1454414;87;21614;-84
2022/01/25 04:09:06;;;;;;;40.92;18.85;;;;;;;-7.62;64.41;102093.54;1438667;88;21415;-84
2022/01/25 04:11:35;;;;;;;47.47;23.43;;;;;;;-7.60;64.36;102096.10;1461639;88;22567;-82
2022/01/25 04:14:04;;;;;;;48.35;21.12;;;;;;;-7.59;64.21;102092.70;1460345;86;21459;-83
2022/01/25 04:16:49;;;;;;;40.28;21.48;;;;;;;-7.57;64.19;102093.11;1453120;87;22538;-83
2022/01/25 04:19:19;;;;;;;42.43;21.15;;;;;;;-7.58;64.19;102091.84;1456552;87;22734;-83
2022/01/25 04:26:58;;;;;;;41.18;20.68;;;;;;;-7.32;64.42;102079.95;1463598;87;21434;-81
2022/01/25 04:29:26;;;;;;;49.95;21.55;;;;;;;-7.26;64.18;102076.55;1452444;87;21436;-81
2022/01/25 04:31:54;;;;;;;49.18;23.52;;;;;;;-7.18;64.17;102075.30;1442229;88;21363;-80
2022/01/25 04:50:53;;;;;;;55.78;27.67;;;;;;;-7.24;63.31;102059.84;1454146;87;21445;-83
2022/01/25 04:53:12;;;;;;;63.13;30.75;;;;;;;-7.33;63.56;102062.81;1449458;86;21481;-84
2022/01/25 04:55:39;;;;;;;58.98;27.93;;;;;;;-7.43;64.15;102060.19;1454649;88;21511;-84
2022/01/25 04:58:08;;;;;;;54.50;26.87;;;;;;;-7.39;64.06;102056.75;1431585;88;21533;-80
2022/01/25 05:00:31;;;;;;;69.25;29.92;;;;;;;-7.43;64.20;102053.32;1457233;87;21363;-79
2022/01/25 05:03:11;;;;;;;84.07;35.25;;;;;;;-7.50;64.48;102045.16;1461174;86;21438;-81
2022/01/25 05:05:40;;;;;;;74.37;36.23;;;;;;;-7.54;64.59;102048.55;1441132;87;22456;-81
2022/01/25 05:08:16;;;;;;;69.87;31.33;;;;;;;-7.59;65.18;102049.84;1446835;87;21415;-81
2022/01/25 05:10:45;;;;;;;71.65;29.77;;;;;;;-7.58;65.50;102042.98;1452088;87;21577;-80
2022/01/25 05:13:35;;;;;;;66.10;31.27;;;;;;;-7.59;65.57;102041.27;1444711;87;23684;-81
2022/01/25 05:18:20;;;;;;;75.60;35.40;;;;;;;-7.49;65.71;102039.16;1454520;87;21548;-81
2022/01/25 05:23:33;;;;;;;66.72;31.82;;;;;;;-7.46;65.64;102037.88;1458540;87;21465;-81
2022/01/25 05:26:03;;;;;;;67.12;32.53;;;;;;;-7.45;65.95;102040.91;1439919;88;21474;-81
2022/01/25 05:28:30;;;;;;;67.30;30.27;;;;;;;-7.45;65.89;102031.91;1458005;87;22480;-81
2022/01/25 05:30:57;;;;;;;74.60;33.80;;;;;;;-7.40;65.85;102031.47;1438427;87;21452;-81
2022/01/25 05:33:24;;;;;;;95.90;44.70;;;;;;;-7.36;66.15;102024.21;1464578;87;22469;-82
2022/01/25 05:35:57;;;;;;;68.17;32.08;;;;;;;-7.39;66.92;102021.62;1447026;88;21489;-81
2022/01/25 05:38:25;;;;;;;64.03;30.55;;;;;;;-7.49;67.22;102012.15;1461139;87;22447;-82
2022/01/25 05:40:59;;;;;;;69.47;33.20;;;;;;;-7.58;67.80;102009.12;1440600;88;21453;-83
2022/01/25 05:46:19;;;;;;;84.52;40.35;;;;;;;-7.58;67.39;102012.13;1451648;89;21651;-82
2022/01/25 05:48:47;;;;;;;84.17;38.73;;;;;;;-7.55;68.20;102007.84;1449297;87;23667;-81
2022/01/25 05:51:15;;;;;;;71.37;34.90;;;;;;;-7.48;67.32;102012.57;1447925;87;21547;-81
2022/01/25 05:53:42;;;;;;;57.75;28.45;;;;;;;-7.45;67.63;102004.89;1449555;87;21514;-82
2022/01/25 05:56:09;;;;;;;73.22;33.90;;;;;;;-7.44;67.46;102013.03;1447444;87;22744;-82
2022/01/25 05:58:37;;;;;;;81.63;38.08;;;;;;;-7.39;67.27;102015.20;1417434;88;21437;-81
2022/01/25 06:01:04;;;;;;;79.55;35.95;;;;;;;-7.31;67.69;102027.66;1456772;86;21422;-83
2022/01/25 06:03:31;;;;;;;71.67;33.73;;;;;;;-7.24;68.52;102018.23;1466925;86;22501;-80
2022/01/25 06:05:58;;;;;;;72.35;33.15;;;;;;;-7.19;67.76;102016.95;1467454;87;21368;-81
2022/01/25 06:08:25;;;;;;;62.70;31.40;;;;;;;-7.15;67.54;102010.97;1459580;87;22384;-81
2022/01/25 06:10:53;;;;;;;69.22;32.30;;;;;;;-7.06;67.37;102014.41;1461979;87;21533;-81
2022/01/25 06:13:20;;;;;;;68.42;32.40;;;;;;;-7.05;66.83;102011.41;1436633;87;21790;-81
2022/01/25 06:15:47;;;;;;;63.55;32.38;;;;;;;-7.07;66.71;102006.70;1437393;87;21452;-81
2022/01/25 06:18:14;;;;;;;68.87;31.65;;;;;;;-7.04;66.63;102010.56;1442768;88;23399;-81
2022/01/25 06:20:41;;;;;;;68.65;33.95;;;;;;;-7.02;66.29;102008.83;1463529;87;21429;-80
2022/01/25 06:23:08;;;;;;;77.15;34.73;;;;;;;-7.00;66.23;102006.27;1437916;87;22456;-81
2022/01/25 06:25:36;;;;;;;73.12;35.65;;;;;;;-7.04;66.34;102005.42;1467753;87;21400;-81
2022/01/25 06:28:03;;;;;;;78.72;34.18;;;;;;;-7.06;66.32;102017.42;1457832;88;21398;-81
2022/01/25 06:30:31;;;;;;;73.65;36.15;;;;;;;-7.02;66.39;102013.98;1446233;86;21474;-81
2022/01/25 06:32:59;;;;;;;76.92;35.20;;;;;;;-6.94;66.31;102017.43;1452138;87;22462;-81
2022/01/25 06:35:31;;;;;;;79.15;38.50;;;;;;;-6.91;66.37;102015.30;1448592;87;21551;-80
2022/01/25 06:37:58;;;;;;;72.25;35.15;;;;;;;-6.84;66.37;102021.75;1457989;87;21444;-80
2022/01/25 06:40:27;;;;;;;76.75;38.10;;;;;;;-6.82;66.08;102022.62;1439498;88;21548;-82
2022/01/25 06:43:00;;;;;;;85.03;37.88;;;;;;;-6.74;66.46;102033.34;1448145;86;23168;-81
2022/01/25 06:45:28;;;;;;;72.03;33.38;;;;;;;-6.67;66.59;102029.92;1457309;86;21415;-82
2022/01/25 06:47:55;;;;;;;75.87;35.85;;;;;;;-6.67;67.80;102029.92;1451589;87;22554;-82
2022/01/25 06:50:23;;;;;;;75.08;36.10;;;;;;;-6.61;66.96;102029.92;1454575;88;21479;-82
2022/01/25 06:52:52;;;;;;;77.85;37.17;;;;;;;-6.56;66.83;102027.33;1452654;87;21423;-80
2022/01/25 06:55:20;;;;;;;70.85;35.95;;;;;;;-6.45;66.64;102024.33;1457707;87;22111;-81
2022/01/25 06:57:48;;;;;;;73.87;35.78;;;;;;;-6.37;66.45;102021.33;1466138;87;22873;-80
2022/01/25 07:00:20;;;;;;;76.47;36.15;;;;;;;-6.28;66.29;102012.29;1449257;86;21724;-80
2022/01/25 07:02:48;;;;;;;91.85;43.30;;;;;;;-6.22;66.00;102010.13;1462964;86;21476;-81
2022/01/25 07:05:16;;;;;;;76.35;40.50;;;;;;;-6.20;65.69;102014.86;1472785;87;21331;-80
2022/01/25 07:07:45;;;;;;;66.95;35.28;;;;;;;-6.17;65.57;102013.13;1440972;87;21413;-80
2022/01/25 07:10:12;;;;;;;79.77;34.60;;;;;;;-6.32;64.98;102007.16;1458890;87;21511;-81
2022/01/25 07:12:39;;;;;;;72.67;34.45;;;;;;;-6.42;65.36;101996.84;1441372;89;21466;-81
2022/01/25 07:15:09;;;;;;;80.42;39.15;;;;;;;-6.50;65.45;102002.86;1451015;88;21597;-82
2022/01/25 07:17:36;;;;;;;81.92;38.65;;;;;;;-6.52;65.64;102000.30;1451459;88;21393;-83
2022/01/25 07:20:06;;;;;;;82.20;38.90;;;;;;;-6.50;65.91;101989.97;1474543;87;22356;-84
2022/01/25 07:22:37;;;;;;;72.65;36.33;;;;;;;-6.49;65.63;101989.98;1461468;87;21425;-82
2022/01/25 07:25:15;;;;;;;69.37;33.98;;;;;;;-6.50;65.71;101993.44;1437267;88;21453;-82
2022/01/25 07:27:42;;;;;;;70.78;35.20;;;;;;;-6.45;65.88;101990.84;1441310;89;21501;-83
2022/01/25 07:30:13;;;;;;;75.52;35.20;;;;;;;-6.35;65.90;101982.25;1398574;90;22372;-85
2022/01/25 07:32:41;;;;;;;81.30;38.65;;;;;;;-6.29;65.69;101977.52;1447452;88;21526;-84
2022/01/25 07:35:08;;;;;;;77.27;36.90;;;;;;;-6.25;65.83;101985.66;1415208;89;21554;-84
2022/01/25 07:37:36;;;;;;;81.80;39.27;;;;;;;-6.15;65.99;101991.23;1452223;89;21569;-80
2022/01/25 07:40:05;;;;;;;77.45;38.63;;;;;;;-5.99;65.99;101980.44;1435988;88;21486;-81
2022/01/25 07:42:36;;;;;;;71.40;37.25;;;;;;;-5.95;66.21;101986.03;1443085;88;21509;-81
2022/01/25 07:45:09;;;;;;;85.30;38.30;;;;;;;-5.88;65.92;101991.55;1457395;87;21605;-81
2022/01/25 07:47:36;;;;;;;70.32;36.25;;;;;;;-5.83;65.32;101985.10;1437607;87;21534;-81
2022/01/25 07:50:07;;;;;;;74.42;39.45;;;;;;;-5.73;65.73;101987.62;1439198;87;21464;-81
2022/01/25 07:52:34;;;;;;;76.05;41.88;;;;;;;-5.58;65.68;101989.30;1435146;88;22880;-85
2022/01/25 07:55:03;;;;;;;79.30;36.95;;;;;;;-5.51;64.95;101987.10;1441546;87;21541;-85
2022/01/25 07:57:31;;;;;;;70.90;36.68;;;;;;;-5.49;64.46;101981.95;1449664;87;21474;-85
2022/01/25 08:00:12;;;;;;;78.90;37.03;;;;;;;-5.48;64.45;101988.38;1458282;87;21555;-85
2022/01/25 08:02:41;;;;;;;78.00;38.45;;;;;;;-5.47;64.57;101982.78;1447308;87;21433;-85
2022/01/25 08:05:09;;;;;;;74.67;38.25;;;;;;;-5.42;64.66;101975.87;1449616;87;21541;-85
2022/01/25 08:07:38;;;;;;;84.25;40.67;;;;;;;-5.27;64.78;101981.38;1428498;88;21501;-86
2022/01/25 08:10:06;;;;;;;79.55;38.85;;;;;;;-5.13;64.60;101973.56;1451676;87;21399;-84
2022/01/25 08:12:33;;;;;;;76.50;35.65;;;;;;;-5.12;64.12;101967.11;1441109;88;21456;-83
2022/01/25 08:15:16;;;;;;;83.72;42.90;;;;;;;-5.02;64.10;101973.91;1408125;89;22583;-83
2022/01/25 08:20:33;;;;;;;79.12;40.52;;;;;;;-5.10;63.93;101965.79;1414449;88;21406;-83
2022/01/25 08:23:16;;;;;;;74.65;39.48;;;;;;;-5.11;63.59;101959.77;1400196;87;21265;-83
2022/01/25 08:25:43;;;;;;;73.45;38.58;;;;;;;-5.14;63.65;101961.53;1423982;88;21331;-83
2022/01/25 08:28:10;;;;;;;73.07;38.05;;;;;;;-5.13;63.81;101964.08;1397671;87;21266;-83
2022/01/25 08:30:38;;;;;;;80.25;41.92;;;;;;;-5.14;63.64;101968.83;1381207;87;21378;-83
2022/01/25 08:33:07;;;;;;;82.95;42.53;;;;;;;-5.16;63.69;101970.56;1374963;89;23151;-83
2022/01/25 08:35:37;;;;;;;76.05;39.33;;;;;;;-5.14;64.06;101968.83;1418190;88;21301;-84
2022/01/25 08:38:04;;;;;;;81.80;40.88;;;;;;;-5.07;64.08;101966.63;1459400;87;22277;-84
2022/01/25 08:40:33;;;;;;;78.22;39.98;;;;;;;-5.01;64.07;101965.28;1453000;88;21471;-84
2022/01/25 08:43:01;;;;;;;80.95;41.68;;;;;;;-4.87;64.22;101974.66;1426489;88;21480;-83
2022/01/25 08:45:29;;;;;;;84.22;42.60;;;;;;;-4.71;63.92;101974.98;1441200;87;21525;-83
2022/01/25 08:47:56;;;;;;;76.85;39.53;;;;;;;-4.65;63.64;101968.46;1449268;87;21484;-82
2022/01/25 08:50:24;;;;;;;81.72;38.98;;;;;;;-4.59;63.44;101973.57;1434570;88;22139;-84
2022/01/25 08:52:51;;;;;;;89.30;42.53;;;;;;;-4.55;63.29;101968.78;1444050;87;21435;-83
2022/01/25 08:55:19;;;;;;;86.00;39.75;;;;;;;-4.49;63.25;101976.06;1438363;88;21466;-83
2022/01/25 08:57:46;;;;;;;74.70;39.30;;;;;;;-4.43;62.75;101966.96;1425261;87;21340;-83
2022/01/25 09:00:14;;;;;;;105.95;42.85;;;;;;;-4.44;63.03;101971.72;1422827;87;22419;-84
2022/01/25 09:02:42;;;;;;;84.47;40.15;;;;;;;-4.40;63.09;101968.22;1407426;88;21326;-83
2022/01/25 09:05:10;;;;;;;83.17;43.52;;;;;;;-4.42;62.75;101970.84;1411165;88;22177;-83
2022/01/25 09:07:37;;;;;;;83.72;41.92;;;;;;;-4.41;63.11;101961.35;1466009;88;22676;-84
2022/01/25 09:10:06;;;;;;;96.75;41.95;;;;;;;-4.47;62.72;101967.88;1449891;88;21464;-84
2022/01/25 09:12:33;;;;;;;86.02;38.05;;;;;;;-4.50;62.83;101970.05;1448908;87;21397;-83
2022/01/25 09:15:01;;;;;;;82.47;44.00;;;;;;;-4.45;63.04;101967.44;1446848;87;22566;-81
2022/01/25 09:17:28;;;;;;;93.30;42.00;;;;;;;-4.42;62.98;101966.11;1462709;88;21440;-81
2022/01/25 09:19:55;;;;;;;85.28;43.48;;;;;;;-4.40;62.90;101953.59;1430374;88;22374;-82
2022/01/25 09:22:23;;;;;;;84.45;39.78;;;;;;;-4.44;62.79;101958.80;1455231;87;22428;-82
2022/01/25 09:24:50;;;;;;;95.17;41.65;;;;;;;-4.54;62.84;101952.43;1460620;88;21493;-81
2022/01/25 09:27:17;;;;;;;92.00;42.73;;;;;;;-4.50;63.02;101956.27;1460839;87;21590;-81
2022/01/25 09:29:44;;;;;;;93.50;46.63;;;;;;;-4.46;63.09;101960.53;1450023;87;21562;-82
2022/01/25 09:32:12;;;;;;;82.85;46.15;;;;;;;-4.39;63.40;101967.38;1420628;89;22405;-81
2022/01/25 09:34:39;;;;;;;82.08;42.00;;;;;;;-4.32;63.41;101959.52;1445850;87;21464;-82
2022/01/25 09:37:06;;;;;;;81.70;40.67;;;;;;;-4.21;63.30;101949.08;1446645;88;21449;-82
2022/01/25 09:39:33;;;;;;;80.38;41.30;;;;;;;-4.09;63.12;101959.72;1455645;87;21555;-82
2022/01/25 09:42:03;;;;;;;83.05;41.95;;;;;;;-4.05;63.06;101959.27;1443504;88;23152;-82
2022/01/25 09:44:30;;;;;;;85.53;40.70;;;;;;;-4.07;62.54;101948.08;1441956;88;22534;-83
2022/01/25 09:47:00;;;;;;;80.50;43.68;;;;;;;-4.10;62.40;101938.18;1439936;87;21516;-82
2022/01/25 09:49:36;;;;;;;85.53;43.65;;;;;;;-4.07;62.68;101939.88;1435420;88;21424;-81
2022/01/25 09:52:06;;;;;;;82.35;43.15;;;;;;;-4.02;62.75;101935.96;1451624;87;21663;-81
2022/01/25 09:54:38;;;;;;;78.72;42.93;;;;;;;-3.92;62.75;101941.42;1454216;87;21596;-81
2022/01/25 09:57:06;;;;;;;81.30;39.92;;;;;;;-3.89;62.61;101934.92;1444371;87;21413;-81
2022/01/25 09:59:33;;;;;;;81.42;42.48;;;;;;;-3.88;62.89;101937.95;1447699;88;21502;-81
2022/01/25 10:02:00;;;;;;;87.27;43.50;;;;;;;-3.87;62.70;101931.89;1451319;87;21537;-81
2022/01/25 10:04:37;;;;;;;96.17;44.03;;;;;;;-3.89;62.84;101929.30;1435699;87;21493;-82
2022/01/25 10:07:05;;;;;;;82.62;44.55;;;;;;;-3.82;62.74;101931.84;1443309;89;21516;-82
2022/01/25 10:09:33;;;;;;;78.78;40.17;;;;;;;-3.82;62.98;101928.81;1429155;87;21281;-81
2022/01/25 10:12:19;;;;;;;83.60;41.80;;;;;;;-3.77;62.85;101929.62;1381895;88;21523;-81
2022/01/25 10:15:01;;;;;;;85.45;44.23;;;;;;;-3.86;62.93;101931.85;1383224;87;22316;-82
2022/01/25 10:17:35;;;;;;;;;;;;;;;-3.78;62.96;101920.12;1387256;88;22329;-82
2022/01/25 10:20:04;;;;;;;79.15;41.77;;;;;;;-3.69;63.04;101921.29;1400272;89;20247;-83
2022/01/25 10:22:45;;;;;;;75.62;38.90;;;;;;;-3.60;62.75;101920.31;1391437;88;21535;-81
2022/01/25 10:25:14;;;;;;;83.27;43.00;;;;;;;-3.64;62.34;101919.95;1400062;87;21333;-81
2022/01/25 10:28:01;;;;;;;84.30;41.30;;;;;;;-3.61;62.80;101921.64;1392902;88;21412;-83
2022/01/25 10:30:43;;;;;;;77.82;41.15;;;;;;;-3.64;63.14;101925.97;1423121;88;21316;-82
2022/01/25 10:33:36;;;;;;;82.08;41.20;;;;;;;-3.61;62.63;101912.14;1382474;89;21384;-82
2022/01/25 10:36:16;;;;;;;85.57;43.20;;;;;;;-3.52;62.93;101912.45;1435971;88;21281;-82
2022/01/25 10:38:46;;;;;;;81.47;40.40;;;;;;;-3.39;63.11;101897.17;1379602;86;22514;-81
2022/01/25 10:41:25;;;;;;;79.62;40.50;;;;;;;-3.27;62.77;101894.39;1394893;88;22589;-82
2022/01/25 10:43:56;;;;;;;78.37;42.58;;;;;;;-3.17;62.73;101896.39;1373228;88;21521;-81
2022/01/25 10:46:30;;;;;;;77.15;41.37;;;;;;;-3.05;62.45;101884.97;1407137;87;23045;-81
2022/01/25 10:49:07;;;;;;;71.87;39.13;;;;;;;-3.06;62.26;101888.00;1390455;87;21287;-82
2022/01/25 10:51:42;;;;;;;73.47;38.55;;;;;;;-3.01;62.34;101891.38;1395911;87;21434;-82
2022/01/25 10:54:24;;;;;;;75.80;41.58;;;;;;;-2.96;62.36;101879.66;1399834;88;22776;-81
2022/01/25 10:56:57;;;;;;;72.53;38.83;;;;;;;-2.87;62.14;101873.02;1419870;87;22506;-80
2022/01/25 10:59:36;;;;;;;81.65;41.28;;;;;;;-2.79;62.17;101873.75;1386297;89;21306;-81
2022/01/25 11:02:06;;;;;;;77.08;39.48;;;;;;;-2.67;62.27;101861.45;1374343;89;21368;-81
2022/01/25 11:04:38;;;;;;;65.45;37.45;;;;;;;-2.58;62.08;101853.50;1380274;87;21405;-81
2022/01/25 11:07:09;;;;;;;69.17;35.08;;;;;;;-2.51;61.98;101848.59;1425605;87;21310;-81
2022/01/25 11:09:43;;;;;;;67.90;38.35;;;;;;;-2.40;61.92;101850.55;1406632;87;21369;-81
2022/01/25 11:12:14;;;;;;;67.10;35.05;;;;;;;-2.30;61.88;101849.48;1391451;87;21473;-81
2022/01/25 11:14:57;;;;;;;63.58;35.52;;;;;;;-2.30;61.21;101855.98;1388554;87;21280;-83
2022/01/25 11:17:28;;;;;;;71.22;37.20;;;;;;;-2.32;61.15;101859.03;1378930;88;21516;-81
2022/01/25 11:19:57;;;;;;;65.52;35.33;;;;;;;-2.31;61.13;101852.09;1430570;87;21769;-83
2022/01/25 11:22:26;;;;;;;70.28;35.03;;;;;;;-2.33;61.02;101843.07;1393059;87;21304;-83
2022/01/25 11:25:01;;;;;;;58.63;31.87;;;;;;;-2.28;61.20;101842.52;1398098;88;21379;-82
2022/01/25 11:27:30;;;;;;;53.42;31.93;;;;;;;-2.22;60.94;101839.39;1403665;87;21408;-82
2022/01/25 11:30:02;;;;;;;57.93;32.00;;;;;;;-2.32;60.58;101831.80;1425070;87;21526;-82
2022/01/25 11:32:34;;;;;;;58.90;32.25;;;;;;;-2.44;60.68;101829.46;1483766;88;22271;-80
2022/01/25 11:35:05;;;;;;;58.68;30.90;;;;;;;-2.46;61.16;101832.97;1420320;91;22319;-81
2022/01/25 11:37:44;;;;;;;59.00;32.88;;;;;;;-2.42;61.36;101832.86;1429774;89;21408;-79
2022/01/25 11:40:40;;;;;;;60.58;32.28;;;;;;;-2.44;61.13;101828.17;1427443;88;21444;-81
2022/01/25 11:43:21;;;;;;;71.00;34.65;;;;;;;-2.38;61.53;101825.45;1459879;88;22434;-80
2022/01/25 11:45:55;;;;;;;71.47;34.98;;;;;;;-2.37;61.17;101819.36;1427889;87;21405;-79
2022/01/25 11:48:24;;;;;;;58.68;32.73;;;;;;;-2.45;61.34;101821.25;1389998;90;21335;-78
2022/01/25 11:50:51;;;;;;;61.60;35.33;;;;;;;-2.46;61.66;101820.00;1422292;88;22829;-78
2022/01/25 11:53:22;;;;;;;65.22;34.75;;;;;;;-2.39;61.90;101818.98;1420839;88;21463;-79
2022/01/25 11:55:55;;;;;;;48.98;27.85;;;;;;;-2.30;61.75;101810.59;1428510;89;22789;-79
2022/01/25 11:58:27;;;;;;;59.88;33.08;;;;;;;-2.17;61.86;101807.73;1452525;87;21345;-81
2022/01/25 12:01:03;;;;;;;60.03;34.23;;;;;;;-1.98;61.76;101805.16;1452962;87;21412;-81
2022/01/25 12:04:04;;;;;;;59.95;33.42;;;;;;;-1.99;61.06;101802.13;1410998;87;21415;-82
2022/01/25 12:06:42;;;;;;;55.48;30.57;;;;;;;-1.96;60.90;101798.17;1344204;90;21348;-81
2022/01/25 12:09:30;;;;;;;62.10;33.25;;;;;;;-1.94;61.07;101799.00;1416107;87;22586;-81
2022/01/25 12:12:00;;;;;;;64.25;33.67;;;;;;;-1.92;60.88;101806.31;1395593;87;22367;-80
2022/01/25 12:14:42;;;;;;;53.38;29.65;;;;;;;-1.93;60.65;101803.29;1367629;91;21333;-81
2022/01/25 12:17:16;;;;;;;64.30;32.13;;;;;;;-2.07;60.62;101793.69;1417260;91;22151;-81
2022/01/25 12:20:03;;;;;;;66.85;35.20;;;;;;;-2.15;60.79;101792.55;1380091;92;22897;-82
2022/01/25 12:22:38;;;;;;;63.10;28.05;;;;;;;-2.23;60.95;101787.11;1372819;91;21439;-83
2022/01/25 12:25:20;;;;;;;63.42;34.50;;;;;;;-2.22;61.41;101782.33;1413013;89;21501;-82
2022/01/25 12:28:02;;;;;;;66.85;33.08;;;;;;;-2.14;61.71;101773.94;1413460;90;22785;-82
2022/01/25 12:30:39;;;;;;;64.12;31.85;;;;;;;-2.07;61.81;101775.08;1429498;89;21604;-81
2022/01/25 12:33:29;;;;;;;60.77;32.23;;;;;;;-1.96;61.88;101776.56;1425076;89;22111;-81
2022/01/25 12:36:04;;;;;;;60.73;31.35;;;;;;;-1.87;61.66;101769.45;1419750;89;21548;-81
2022/01/25 12:38:51;;;;;;;55.23;30.72;;;;;;;-1.84;61.50;101765.48;1441770;88;21412;-80
2022/01/25 12:41:27;;;;;;;62.95;31.00;;;;;;;-1.86;61.21;101767.24;1461138;88;21577;-80
2022/01/25 12:44:09;;;;;;;60.43;32.80;;;;;;;-1.90;61.03;101763.03;1415684;87;21445;-80
2022/01/25 12:46:42;;;;;;;53.68;30.65;;;;;;;-1.87;61.37;101762.95;1431322;86;21361;-81
2022/01/25 12:49:15;;;;;;;61.00;32.75;;;;;;;-2.01;61.25;101756.34;1420995;88;21354;-81
2022/01/25 12:51:45;;;;;;;55.45;29.75;;;;;;;-1.99;61.63;101745.50;1423383;88;21429;-82
2022/01/25 12:54:19;;;;;;;56.80;32.30;;;;;;;-2.07;61.72;101739.21;1439157;88;21325;-80
2022/01/25 12:56:49;;;;;;;57.30;30.20;;;;;;;-2.05;61.75;101740.85;1425744;88;22651;-81
2022/01/25 12:59:22;;;;;;;57.85;31.75;;;;;;;-2.05;61.93;101742.59;1466454;87;21459;-82
2022/01/25 13:01:54;;;;;;;52.88;29.48;;;;;;;-2.01;61.88;101744.25;1429649;88;22641;-82
2022/01/25 13:04:24;;;;;;;59.25;33.88;;;;;;;-1.98;61.84;101735.09;1454464;88;21488;-82